Time;durP1;ratioP1;P1;durP2;ratioP2;P2;SDS_P1;SDS_P2;PMS_P1;PMS_P2;Temp;Humidity;BMP_temperature;BMP_pressure;BME280_temperature;BME280_humidity;BME280_pressure;Samples;Min_cycle;Max_cycle;Signal;HPM_P1;HPM_P2
2022/12/20 00:00:23;;;;;;;8.10;5.40;;;10.90;63.10;;;;;;5050921;28;20476;-75
2022/12/20 00:02:49;;;;;;;12.93;7.67;;;10.90;63.10;;;;;;5053425;28;20540;-77
2022/12/20 00:05:14;;;;;;;8.30;5.40;;;10.90;63.20;;;;;;5052864;28;20386;-77
2022/12/20 00:07:40;;;;;;;8.75;5.80;;;11.00;62.80;;;;;;5056291;28;20396;-76
2022/12/20 00:10:06;;;;;;;6.75;4.53;;;11.00;62.30;;;;;;5060271;28;20381;-77
2022/12/20 00:12:31;;;;;;;10.20;7.38;;;11.10;61.50;;;;;;5057426;28;20390;-77
2022/12/20 00:14:57;;;;;;;7.70;5.15;;;11.20;60.40;;;;;;5069766;28;20389;-77
2022/12/20 00:17:23;;;;;;;9.07;5.60;;;11.20;60.50;;;;;;5072124;28;20399;-77
2022/12/20 00:19:48;;;;;;;6.55;4.82;;;11.20;60.40;;;;;;5071679;28;20388;-79
2022/12/20 00:22:14;;;;;;;8.17;4.53;;;11.10;61.00;;;;;;5059183;28;20418;-77
2022/12/20 00:24:39;;;;;;;6.90;4.10;;;11.10;61.50;;;;;;5054916;28;20739;-77
2022/12/20 00:27:05;;;;;;;8.33;4.93;;;11.00;61.60;;;;;;5055628;28;20395;-76
2022/12/20 00:29:31;;;;;;;8.50;4.43;;;11.10;61.60;;;;;;5053825;28;20413;-77
2022/12/20 00:31:56;;;;;;;5.30;3.70;;;11.00;62.00;;;;;;5054760;28;20877;-78
2022/12/20 00:34:22;;;;;;;6.63;4.23;;;10.90;63.10;;;;;;5053322;28;20432;-77
2022/12/20 00:36:47;;;;;;;7.50;5.20;;;11.00;63.30;;;;;;5052028;28;20939;-77
2022/12/20 00:39:13;;;;;;;6.77;5.10;;;11.00;63.40;;;;;;5054884;28;20382;-77
2022/12/20 00:41:39;;;;;;;9.18;4.15;;;11.00;62.60;;;;;;5058457;28;20405;-77
2022/12/20 00:44:04;;;;;;;7.57;4.55;;;11.00;63.10;;;;;;5063733;28;20396;-78
2022/12/20 00:46:30;;;;;;;9.85;4.65;;;11.00;63.90;;;;;;5054890;28;20940;-76
2022/12/20 00:48:56;;;;;;;6.90;4.40;;;11.10;64.00;;;;;;5063622;28;20491;-78
2022/12/20 00:51:27;;;;;;;7.27;3.93;;;11.10;63.50;;;;;;5058929;28;20384;-77
2022/12/20 00:53:54;;;;;;;7.68;4.18;;;11.10;63.60;;;;;;5056188;28;20526;-77
2022/12/20 00:56:20;;;;;;;11.32;5.25;;;11.10;63.90;;;;;;5057825;28;20858;-77
2022/12/20 00:58:46;;;;;;;9.05;4.82;;;11.20;63.20;;;;;;5061650;28;20388;-77
2022/12/20 01:01:31;;;;;;;6.20;4.90;;;11.20;63.00;;;;;;5067925;28;20401;-78
2022/12/20 01:03:58;;;;;;;10.13;4.90;;;11.10;63.30;;;;;;5068356;28;20400;-78
2022/12/20 01:06:24;;;;;;;9.20;4.47;;;11.10;63.20;;;;;;5066055;28;20452;-77
2022/12/20 01:08:51;;;;;;;6.93;4.30;;;11.10;63.50;;;;;;5056963;28;20460;-77
2022/12/20 01:11:22;;;;;;;6.60;4.18;;;11.10;63.40;;;;;;5054880;28;20388;-77
2022/12/20 01:13:51;;;;;;;9.23;5.60;;;11.20;61.90;;;;;;5056639;28;20444;-77
2022/12/20 01:16:27;;;;;;;10.27;6.95;;;11.30;61.90;;;;;;5058011;28;20382;-77
2022/12/20 01:18:53;;;;;;;9.05;6.43;;;11.20;61.90;;;;;;5058549;28;20381;-77
2022/12/20 01:21:20;;;;;;;13.93;8.25;;;11.20;61.90;;;;;;5061464;28;20439;-78
2022/12/20 01:23:46;;;;;;;7.82;5.40;;;11.20;62.00;;;;;;5064259;28;20381;-76
2022/12/20 01:26:15;;;;;;;8.85;5.80;;;11.30;61.40;;;;;;5059680;28;20523;-77
2022/12/20 01:28:43;;;;;;;9.45;6.30;;;11.30;60.80;;;;;;5060220;28;20385;-76
2022/12/20 01:31:11;;;;;;;7.32;5.05;;;11.30;60.30;;;;;;5057536;28;20385;-77
2022/12/20 01:33:37;;;;;;;8.68;5.68;;;11.30;60.40;;;;;;5055251;28;20405;-76
2022/12/20 01:36:06;;;;;;;11.38;7.63;;;11.30;61.00;;;;;;5056832;28;20446;-77
2022/12/20 01:38:34;;;;;;;8.68;6.00;;;11.30;60.70;;;;;;5056796;28;20409;-79
2022/12/20 01:41:00;;;;;;;6.82;5.38;;;11.30;60.80;;;;;;5055725;28;20385;-77
2022/12/20 01:43:46;;;;;;;8.80;5.60;;;11.30;60.90;;;;;;5056092;28;20419;-77
2022/12/20 01:46:11;;;;;;;8.83;6.00;;;11.30;61.60;;;;;;5057084;28;20388;-76
2022/12/20 01:48:37;;;;;;;9.87;4.80;;;11.30;62.00;;;;;;5058057;28;20382;-76
2022/12/20 01:51:03;;;;;;;10.60;5.23;;;11.40;61.30;;;;;;5060351;28;20385;-77
2022/12/20 01:53:30;;;;;;;9.85;6.30;;;11.40;61.70;;;;;;5058041;28;20969;-78
2022/12/20 01:55:58;;;;;;;9.80;4.95;;;11.40;62.80;;;;;;5056148;28;20392;-77
2022/12/20 01:58:24;;;;;;;9.10;5.20;;;11.30;62.60;;;;;;5053917;28;20424;-77
2022/12/20 02:00:49;;;;;;;7.07;4.97;;;11.40;62.70;;;;;;5055654;28;20965;-77
2022/12/20 02:03:15;;;;;;;10.27;6.00;;;11.30;63.10;;;;;;5053678;28;20397;-78
2022/12/20 02:05:46;;;;;;;8.77;6.20;;;11.30;63.30;;;;;;5054857;28;20381;-79
2022/12/20 02:08:17;;;;;;;7.93;5.35;;;11.30;64.00;;;;;;5057988;28;20392;-78
2022/12/20 02:10:54;;;;;;;8.82;5.07;;;11.30;64.90;;;;;;5057621;28;20386;-77
2022/12/20 02:13:43;;;;;;;9.98;5.78;;;11.20;65.30;;;;;;5055221;28;20405;-77
2022/12/20 02:16:12;;;;;;;9.48;6.38;;;11.30;65.10;;;;;;5050391;28;20428;-77
2022/12/20 02:18:47;;;;;;;8.27;4.72;;;11.30;65.20;;;;;;5044017;28;20403;-77
2022/12/20 02:21:34;;;;;;;8.55;6.03;;;11.30;64.30;;;;;;5054220;28;20440;-78
2022/12/20 02:24:24;;;;;;;8.05;5.28;;;11.30;65.40;;;;;;5059390;28;20401;-77
2022/12/20 02:27:16;;;;;;;7.60;5.43;;;11.30;65.10;;;;;;5065027;28;20416;-78
2022/12/20 02:30:03;;;;;;;9.23;5.70;;;11.30;64.70;;;;;;5061295;28;20389;-76
2022/12/20 02:32:37;;;;;;;9.57;5.78;;;11.30;64.90;;;;;;5064158;28;20421;-81
2022/12/20 02:35:06;;;;;;;9.35;5.45;;;11.20;66.00;;;;;;5052889;28;20992;-76
2022/12/20 02:37:32;;;;;;;9.55;6.28;;;11.30;65.80;;;;;;5052942;28;20397;-74
2022/12/20 02:39:57;;;;;;;14.93;9.97;;;11.30;65.70;;;;;;5052846;28;20387;-78
2022/12/20 02:42:27;;;;;;;11.17;7.20;;;11.40;65.30;;;;;;5054621;28;20414;-78
2022/12/20 02:45:14;;;;;;;13.55;7.15;;;11.20;65.60;;;;;;5036745;28;20383;-79
2022/12/20 02:47:57;;;;;;;13.40;7.60;;;11.20;66.00;;;;;;5042503;28;20383;-77
2022/12/20 02:50:28;;;;;;;10.35;6.88;;;11.30;65.80;;;;;;5032644;28;20522;-76
2022/12/20 02:52:55;;;;;;;15.57;7.53;;;11.20;65.60;;;;;;5033100;28;20411;-79
2022/12/20 02:55:28;;;;;;;11.50;7.57;;;11.20;65.70;;;;;;5034559;28;20379;-76
2022/12/20 02:57:57;;;;;;;14.77;8.80;;;11.20;66.10;;;;;;5034540;28;20383;-76
2022/12/20 03:00:23;;;;;;;12.97;8.80;;;11.20;67.00;;;;;;5033712;28;20418;-76
2022/12/20 03:05:42;;;;;;;11.43;8.00;;;11.10;69.00;;;;;;5036221;28;20414;-76
2022/12/20 03:08:08;;;;;;;11.68;7.55;;;11.10;70.60;;;;;;5036181;28;20395;-76
2022/12/20 03:10:33;;;;;;;11.02;7.60;;;11.10;70.70;;;;;;5035548;28;20410;-77
2022/12/20 03:12:59;;;;;;;13.15;8.32;;;11.10;71.90;;;;;;5035569;28;20424;-77
2022/12/20 03:15:24;;;;;;;14.30;8.40;;;11.00;72.90;;;;;;5035299;28;20399;-77
2022/12/20 03:17:50;;;;;;;11.97;7.93;;;11.00;74.30;;;;;;5034412;28;20387;-78
2022/12/20 03:20:16;;;;;;;15.80;10.67;;;10.90;76.00;;;;;;5031819;28;20864;-77
2022/12/20 03:22:41;;;;;;;14.20;10.10;;;10.80;77.10;;;;;;5032870;28;20822;-76
2022/12/20 03:25:07;;;;;;;14.83;9.03;;;10.80;78.20;;;;;;5033791;28;20397;-79
2022/12/20 03:27:33;;;;;;;13.13;8.63;;;10.70;80.00;;;;;;5033671;28;20391;-77
2022/12/20 03:29:59;;;;;;;14.85;8.43;;;10.70;81.20;;;;;;5032991;28;20464;-78
2022/12/20 03:32:25;;;;;;;17.15;9.10;;;10.70;80.80;;;;;;5033134;28;20971;-78
2022/12/20 03:34:50;;;;;;;14.05;7.78;;;10.70;80.70;;;;;;5038324;28;20387;-77
2022/12/20 03:37:16;;;;;;;17.17;10.13;;;10.60;82.20;;;;;;5034926;28;20852;-77
2022/12/20 03:39:41;;;;;;;16.13;9.97;;;10.60;83.00;;;;;;5042195;28;20411;-76
2022/12/20 03:42:07;;;;;;;18.50;11.00;;;10.50;83.50;;;;;;5048160;28;20430;-78
2022/12/20 03:44:33;;;;;;;14.67;9.80;;;10.50;84.50;;;;;;5037819;28;20720;-77
2022/12/20 03:46:58;;;;;;;16.87;9.87;;;10.50;84.30;;;;;;5034476;28;20466;-78
2022/12/20 03:49:24;;;;;;;16.45;9.30;;;10.50;84.00;;;;;;5032472;28;20487;-77
2022/12/20 03:51:49;;;;;;;14.63;10.90;;;10.50;84.40;;;;;;5032450;28;20864;-76
2022/12/20 03:54:15;;;;;;;14.07;10.02;;;10.60;83.20;;;;;;5032729;28;20446;-77
2022/12/20 03:56:40;;;;;;;10.38;7.80;;;10.60;83.30;;;;;;5032918;28;20391;-78
2022/12/20 03:59:06;;;;;;;16.90;10.23;;;10.60;83.20;;;;;;5035163;28;20382;-78
2022/12/20 04:01:35;;;;;;;16.87;10.00;;;10.60;85.10;;;;;;5043077;28;20474;-77
2022/12/20 04:04:02;;;;;;;12.35;8.80;;;10.50;87.00;;;;;;5043977;28;20426;-75
2022/12/20 04:06:27;;;;;;;13.10;8.53;;;10.50;87.10;;;;;;5047375;28;20379;-78
2022/12/20 04:08:53;;;;;;;16.55;11.15;;;10.60;87.80;;;;;;5048367;28;20417;-77
2022/12/20 04:11:19;;;;;;;11.35;7.72;;;10.50;90.00;;;;;;5036172;28;20827;-78
2022/12/20 04:13:47;;;;;;;16.67;9.38;;;10.40;91.80;;;;;;5032568;28;20402;-77
2022/12/20 04:16:14;;;;;;;15.00;10.60;;;10.40;92.80;;;;;;5032865;28;20418;-77
2022/12/20 04:18:40;;;;;;;12.38;7.93;;;10.40;92.80;;;;;;5032787;28;20811;-77
2022/12/20 04:21:06;;;;;;;12.77;8.68;;;10.40;94.10;;;;;;5032094;28;20475;-78
2022/12/20 04:23:34;;;;;;;14.15;8.55;;;10.40;95.10;;;;;;5030897;28;20391;-77
2022/12/20 04:26:00;;;;;;;12.35;8.70;;;10.40;95.90;;;;;;5032205;28;20871;-77
2022/12/20 04:28:25;;;;;;;15.45;10.40;;;10.40;96.90;;;;;;5032386;28;20409;-78
2022/12/20 04:30:51;;;;;;;14.23;10.30;;;10.40;97.10;;;;;;5032230;28;20395;-79
2022/12/20 04:33:16;;;;;;;11.60;8.30;;;10.40;96.90;;;;;;5030749;28;20413;-78
2022/12/20 04:35:42;;;;;;;16.90;9.90;;;10.30;98.10;;;;;;5032408;28;20562;-77
2022/12/20 04:38:07;;;;;;;13.60;8.82;;;10.40;99.50;;;;;;5033295;28;20422;-78
2022/12/20 04:40:33;;;;;;;18.45;10.38;;;10.40;98.70;;;;;;5032998;28;20388;-79
2022/12/20 04:42:58;;;;;;;20.43;10.30;;;10.40;99.90;;;;;;5032018;28;20391;-78
2022/12/20 04:45:24;;;;;;;15.27;10.30;;;10.40;99.90;;;;;;5032276;28;20910;-77
2022/12/20 04:47:49;;;;;;;11.90;8.10;;;10.40;99.90;;;;;;5033316;28;21000;-76
2022/12/20 04:50:15;;;;;;;13.65;10.07;;;10.30;99.90;;;;;;5032096;28;20425;-76
2022/12/20 04:55:24;;;;;;;15.40;10.07;;;10.40;99.90;;;;;;5032335;28;20390;-77
2022/12/20 04:57:50;;;;;;;14.77;10.70;;;10.30;99.90;;;;;;5032425;28;20470;-77
2022/12/20 05:00:16;;;;;;;15.95;10.10;;;10.20;99.90;;;;;;5031823;28;20379;-77
2022/12/20 05:02:41;;;;;;;19.60;13.25;;;10.20;99.90;;;;;;5032268;28;20470;-77
2022/12/20 05:05:07;;;;;;;19.55;9.60;;;10.30;99.90;;;;;;5032166;28;20388;-77
2022/12/20 05:07:33;;;;;;;12.13;8.45;;;10.20;99.90;;;;;;5032359;28;20422;-77
2022/12/20 05:09:58;;;;;;;20.42;11.85;;;10.20;99.90;;;;;;5032158;28;20388;-78
2022/12/20 05:12:24;;;;;;;18.10;11.68;;;10.30;99.90;;;;;;5030262;28;20427;-77
2022/12/20 05:14:50;;;;;;;15.60;9.97;;;10.20;99.90;;;;;;5032655;28;20474;-77
2022/12/20 05:17:15;;;;;;;17.03;9.93;;;10.20;99.90;;;;;;5031871;28;20391;-77
2022/12/20 05:19:41;;;;;;;15.57;10.53;;;10.20;99.90;;;;;;5033266;28;20440;-77
2022/12/20 05:27:35;;;;;;;15.73;11.35;;;10.30;99.90;;;;;;5035019;28;20393;-76
2022/12/20 05:30:00;;;;;;;16.23;9.70;;;10.30;99.90;;;;;;5030866;28;20756;-76
2022/12/20 05:32:26;;;;;;;17.48;9.40;;;10.40;99.90;;;;;;5031938;28;20397;-76
2022/12/20 05:34:51;;;;;;;16.60;8.65;;;10.40;99.90;;;;;;5035170;28;20379;-77
2022/12/20 05:37:17;;;;;;;14.47;8.40;;;10.30;99.90;;;;;;5035364;28;20390;-77
2022/12/20 05:39:42;;;;;;;14.00;8.47;;;10.40;99.90;;;;;;5034931;28;20379;-77
2022/12/20 05:42:08;;;;;;;14.23;10.10;;;10.30;99.90;;;;;;5034295;28;20421;-78
2022/12/20 05:44:33;;;;;;;14.47;8.57;;;10.30;99.90;;;;;;5035307;28;20382;-77
2022/12/20 05:46:59;;;;;;;10.25;7.30;;;10.40;98.60;;;;;;5035051;28;20394;-76
2022/12/20 05:49:24;;;;;;;12.82;8.43;;;10.40;97.40;;;;;;5035023;28;20403;-77
2022/12/20 05:51:50;;;;;;;15.30;7.83;;;10.40;97.10;;;;;;5034609;28;20387;-78
2022/12/20 05:54:15;;;;;;;13.07;8.70;;;10.50;95.60;;;;;;5034833;28;20410;-76
2022/12/20 05:56:41;;;;;;;12.33;8.40;;;10.50;95.60;;;;;;5035726;28;20824;-78
2022/12/20 05:59:08;;;;;;;10.60;7.10;;;10.50;93.90;;;;;;5035311;28;20391;-78
2022/12/20 06:01:33;;;;;;;17.65;8.68;;;10.50;93.00;;;;;;5034020;28;20391;-78
2022/12/20 06:03:59;;;;;;;12.67;7.30;;;10.60;92.10;;;;;;5034896;28;20425;-78
2022/12/20 06:06:25;;;;;;;11.90;8.13;;;10.60;90.90;;;;;;5036706;28;20891;-78
2022/12/20 06:08:50;;;;;;;13.57;8.17;;;10.60;90.20;;;;;;5036775;28;20423;-77
2022/12/20 06:11:16;;;;;;;16.48;8.52;;;10.60;90.00;;;;;;5035594;28;20410;-78
2022/12/20 06:13:41;;;;;;;9.93;6.68;;;10.70;87.50;;;;;;5035596;28;20403;-77
2022/12/20 06:16:07;;;;;;;12.75;7.38;;;10.70;87.90;;;;;;5034547;28;20961;-77
2022/12/20 06:18:32;;;;;;;12.63;8.33;;;10.70;88.20;;;;;;5032433;28;20383;-77
2022/12/20 06:20:58;;;;;;;13.17;7.40;;;10.80;87.00;;;;;;5035015;28;20470;-76
2022/12/20 06:23:24;;;;;;;14.17;7.60;;;10.80;87.00;;;;;;5037710;28;20390;-76
2022/12/20 06:25:50;;;;;;;9.20;6.50;;;10.70;87.20;;;;;;5035321;28;20554;-75
2022/12/20 06:28:20;;;;;;;12.80;7.93;;;10.70;88.00;;;;;;5047827;28;20478;-77
2022/12/20 06:30:55;;;;;;;13.70;7.60;;;10.70;87.10;;;;;;5036052;28;20895;-78
2022/12/20 06:33:21;;;;;;;12.32;9.00;;;10.70;86.10;;;;;;5034575;28;20407;-77
2022/12/20 06:35:48;;;;;;;11.87;7.60;;;10.80;85.60;;;;;;5035382;28;20424;-77
2022/12/20 06:38:14;;;;;;;13.50;7.80;;;10.80;84.60;;;;;;5034398;28;20383;-77
2022/12/20 06:40:39;;;;;;;10.70;6.00;;;10.80;84.70;;;;;;5034496;28;20725;-78
2022/12/20 06:43:05;;;;;;;14.00;8.47;;;10.80;83.70;;;;;;5032577;28;20413;-77
2022/12/20 06:45:31;;;;;;;12.97;7.87;;;10.70;84.80;;;;;;5036829;28;20871;-77
2022/12/20 06:47:57;;;;;;;11.13;7.78;;;10.80;84.20;;;;;;5045028;28;20391;-77
2022/12/20 06:50:23;;;;;;;14.60;7.67;;;10.80;84.00;;;;;;5044531;28;20403;-76
2022/12/20 06:52:49;;;;;;;15.48;8.35;;;10.80;84.20;;;;;;5044886;28;20406;-76
2022/12/20 06:55:14;;;;;;;16.20;8.43;;;10.80;83.50;;;;;;5047155;28;20401;-78
2022/12/20 06:57:40;;;;;;;10.97;6.87;;;10.90;82.00;;;;;;5047398;28;20446;-77
2022/12/20 07:00:07;;;;;;;15.60;9.75;;;10.90;82.20;;;;;;5046937;28;20395;-77
2022/12/20 07:02:33;;;;;;;11.70;6.80;;;10.80;82.00;;;;;;5042480;28;20388;-77
2022/12/20 07:04:58;;;;;;;10.05;7.15;;;10.80;81.50;;;;;;5035675;28;20398;-78
2022/12/20 07:07:24;;;;;;;12.97;8.23;;;10.90;81.40;;;;;;5034087;28;20383;-78
2022/12/20 07:09:49;;;;;;;14.30;7.55;;;10.90;81.00;;;;;;5036829;28;20470;-77
2022/12/20 07:12:15;;;;;;;13.18;7.78;;;10.90;80.60;;;;;;5034106;28;20391;-77
2022/12/20 07:14:41;;;;;;;11.90;7.55;;;10.90;80.00;;;;;;5034665;28;20935;-76
2022/12/20 07:17:07;;;;;;;11.15;6.93;;;10.90;81.10;;;;;;5033715;28;20391;-77
2022/12/20 07:19:34;;;;;;;9.68;6.60;;;10.90;80.00;;;;;;5034667;28;20425;-76
2022/12/20 07:22:00;;;;;;;14.27;8.15;;;10.80;80.50;;;;;;5033449;28;20490;-76
2022/12/20 07:24:26;;;;;;;11.20;7.28;;;10.80;80.90;;;;;;5033300;28;20474;-77
2022/12/20 07:26:51;;;;;;;8.63;6.57;;;10.90;80.40;;;;;;5033942;28;20406;-77
2022/12/20 07:29:17;;;;;;;14.07;8.00;;;10.90;79.50;;;;;;5034890;28;20398;-78
2022/12/20 07:31:42;;;;;;;13.85;7.10;;;10.90;79.40;;;;;;5036199;28;20718;-79
2022/12/20 07:34:08;;;;;;;11.70;7.37;;;10.90;78.90;;;;;;5036389;28;20438;-78
2022/12/20 07:36:34;;;;;;;11.17;7.23;;;10.90;79.70;;;;;;5036784;28;20474;-78
2022/12/20 07:38:59;;;;;;;9.97;6.60;;;10.90;79.50;;;;;;5036749;28;20454;-78
2022/12/20 07:41:25;;;;;;;13.60;8.03;;;10.80;80.30;;;;;;5038921;28;20409;-78
2022/12/20 07:43:51;;;;;;;10.50;6.47;;;10.80;80.80;;;;;;5042055;28;20390;-78
2022/12/20 07:46:17;;;;;;;13.13;8.10;;;10.90;80.20;;;;;;5049485;28;20401;-79
2022/12/20 07:48:43;;;;;;;15.27;7.10;;;10.90;79.90;;;;;;5046967;28;20395;-79
2022/12/20 07:51:16;;;;;;;8.75;6.50;;;10.90;80.10;;;;;;5048610;28;20387;-80
2022/12/20 07:53:47;;;;;;;15.02;8.38;;;10.80;81.50;;;;;;5054490;28;20407;-79
2022/12/20 07:56:14;;;;;;;10.50;6.18;;;10.70;83.10;;;;;;5050756;28;20387;-78
2022/12/20 07:58:41;;;;;;;10.10;6.90;;;10.70;82.60;;;;;;5036349;28;20405;-79
2022/12/20 08:01:09;;;;;;;10.52;6.38;;;10.70;82.20;;;;;;5037633;28;21004;-78
2022/12/20 08:03:50;;;;;;;9.23;5.78;;;10.80;81.40;;;;;;5036660;28;20469;-79
2022/12/20 08:06:17;;;;;;;10.00;6.60;;;10.80;81.90;;;;;;5037100;28;20402;-77
2022/12/20 08:08:48;;;;;;;8.20;6.13;;;10.80;81.30;;;;;;5035388;28;20383;-78
2022/12/20 08:11:14;;;;;;;9.88;6.55;;;10.90;80.00;;;;;;5033378;28;20491;-78
2022/12/20 08:13:40;;;;;;;13.55;6.75;;;10.90;79.80;;;;;;5032905;28;20411;-77
2022/12/20 08:16:06;;;;;;;14.23;7.63;;;10.90;80.00;;;;;;5034432;28;20413;-77
2022/12/20 08:18:31;;;;;;;11.45;6.20;;;11.00;78.90;;;;;;5035875;28;20395;-79
2022/12/20 08:20:57;;;;;;;10.83;7.03;;;11.00;78.20;;;;;;5036573;28;20391;-78
2022/12/20 08:23:23;;;;;;;11.33;6.90;;;11.00;78.00;;;;;;5039144;28;20387;-79
2022/12/20 08:25:49;;;;;;;12.13;6.57;;;11.00;77.60;;;;;;5036345;28;20391;-79
2022/12/20 08:28:14;;;;;;;10.87;5.63;;;11.00;77.00;;;;;;5035381;28;20391;-79
2022/12/20 08:30:43;;;;;;;9.60;6.30;;;11.00;77.50;;;;;;5032923;28;20390;-79
2022/12/20 08:33:08;;;;;;;11.85;6.45;;;11.00;78.00;;;;;;5032142;28;20490;-77
2022/12/20 08:35:34;;;;;;;12.60;6.30;;;11.00;77.10;;;;;;5034121;28;20429;-78
2022/12/20 08:38:00;;;;;;;10.32;6.28;;;11.00;77.00;;;;;;5031855;28;20406;-77
2022/12/20 08:40:25;;;;;;;11.57;5.70;;;11.10;75.90;;;;;;5034341;28;20550;-77
2022/12/20 08:42:51;;;;;;;10.95;5.57;;;11.20;75.80;;;;;;5040702;28;20775;-80
2022/12/20 08:45:18;;;;;;;8.93;6.17;;;11.20;74.90;;;;;;5038239;28;20484;-78
2022/12/20 08:47:43;;;;;;;11.30;6.00;;;11.20;74.40;;;;;;5036313;28;20876;-78
2022/12/20 08:50:09;;;;;;;8.88;5.63;;;11.30;72.60;;;;;;5045870;28;20411;-77
2022/12/20 08:52:35;;;;;;;9.80;6.30;;;11.30;71.70;;;;;;5041180;28;20410;-78
2022/12/20 08:55:00;;;;;;;10.57;6.05;;;11.40;71.90;;;;;;5044157;28;20397;-78
2022/12/20 08:57:26;;;;;;;10.27;6.30;;;11.30;72.00;;;;;;5052409;28;20379;-78
2022/12/20 08:59:52;;;;;;;11.07;6.80;;;11.40;71.10;;;;;;5039091;28;20394;-77
2022/12/20 09:02:17;;;;;;;8.20;5.30;;;11.40;70.50;;;;;;5047753;28;20374;-78
2022/12/20 09:04:43;;;;;;;8.67;6.40;;;11.40;69.50;;;;;;5051935;28;20374;-77
2022/12/20 09:07:09;;;;;;;8.87;5.57;;;11.50;70.00;;;;;;5036772;28;20971;-78
2022/12/20 09:09:35;;;;;;;10.65;6.10;;;11.50;69.20;;;;;;5048860;28;20383;-77
2022/12/20 09:12:00;;;;;;;10.02;5.47;;;11.50;69.10;;;;;;5050550;28;20444;-78
2022/12/20 09:14:26;;;;;;;11.82;6.93;;;11.50;68.90;;;;;;5051172;28;20408;-77
2022/12/20 09:16:52;;;;;;;12.07;7.73;;;11.50;69.40;;;;;;5050130;28;20418;-77
2022/12/20 09:19:17;;;;;;;9.80;5.97;;;11.50;69.60;;;;;;5050431;28;20391;-78
2022/12/20 09:21:43;;;;;;;9.80;6.80;;;11.60;68.50;;;;;;5044073;28;20391;-78
2022/12/20 09:24:09;;;;;;;18.38;7.43;;;11.60;68.00;;;;;;5044099;28;20386;-77
2022/12/20 09:26:34;;;;;;;12.27;7.10;;;11.60;69.20;;;;;;5057206;28;20564;-78
2022/12/20 09:29:04;;;;;;;9.43;5.80;;;11.70;69.00;;;;;;5055856;28;20379;-77
2022/12/20 09:31:30;;;;;;;11.15;6.70;;;11.60;69.20;;;;;;5056537;28;20394;-79
2022/12/20 09:33:57;;;;;;;8.77;6.57;;;11.60;69.00;;;;;;5054602;28;20407;-79
2022/12/20 09:36:25;;;;;;;7.60;6.23;;;11.60;68.60;;;;;;5046737;28;20467;-79
2022/12/20 09:38:52;;;;;;;10.90;6.40;;;11.60;68.60;;;;;;5045787;28;20412;-80
2022/12/20 09:41:36;;;;;;;9.93;6.00;;;11.70;68.30;;;;;;5047729;28;20449;-80
2022/12/20 09:44:18;;;;;;;10.07;7.30;;;11.70;68.30;;;;;;5044738;28;20394;-78
2022/12/20 09:46:48;;;;;;;14.98;7.13;;;11.70;69.50;;;;;;5040893;28;20383;-79
2022/12/20 09:49:17;;;;;;;10.57;6.30;;;11.70;69.50;;;;;;5039407;28;20414;-79
2022/12/20 09:52:15;;;;;;;12.30;6.50;;;11.70;69.30;;;;;;5038743;28;20387;-78
2022/12/20 09:54:59;;;;;;;9.18;5.70;;;11.80;68.30;;;;;;5039743;28;20871;-80
2022/12/20 09:57:45;;;;;;;10.18;6.18;;;11.80;67.90;;;;;;5039731;28;20386;-78
2022/12/20 10:00:15;;;;;;;12.60;5.55;;;11.80;67.30;;;;;;5039554;28;20457;-80
2022/12/20 10:02:40;;;;;;;9.27;5.57;;;11.90;67.80;;;;;;5038236;28;20792;-77
2022/12/20 10:05:42;;;;;;;9.27;5.80;;;11.80;68.50;;;;;;5037112;28;20470;-77
2022/12/20 10:08:36;;;;;;;10.20;5.72;;;11.90;68.80;;;;;;5034346;28;20449;-78
2022/12/20 10:11:18;;;;;;;10.25;5.90;;;11.90;68.30;;;;;;5036956;28;20383;-78
2022/12/20 10:14:11;;;;;;;10.30;5.63;;;11.90;68.60;;;;;;5036534;28;20403;-76
2022/12/20 10:16:45;;;;;;;10.40;6.45;;;11.90;67.60;;;;;;5038503;28;20379;-77
2022/12/20 10:19:26;;;;;;;8.45;5.97;;;11.90;68.40;;;;;;5044892;28;20442;-78
2022/12/20 10:22:02;;;;;;;7.60;5.63;;;11.90;68.60;;;;;;5046902;28;20383;-77
2022/12/20 10:24:33;;;;;;;7.78;4.90;;;12.00;66.20;;;;;;5043382;28;20379;-78
2022/12/20 10:27:19;;;;;;;14.00;6.40;;;12.10;65.50;;;;;;5044999;28;20387;-78
2022/12/20 10:29:46;;;;;;;8.52;5.30;;;12.20;65.30;;;;;;5043774;28;20399;-79
2022/12/20 10:32:15;;;;;;;8.38;5.50;;;12.10;65.80;;;;;;5042103;28;20391;-77
2022/12/20 10:34:50;;;;;;;10.30;6.00;;;12.00;66.20;;;;;;5039575;28;20418;-78
2022/12/20 10:37:17;;;;;;;8.32;5.20;;;12.00;66.40;;;;;;5040114;28;20744;-78
2022/12/20 10:39:47;;;;;;;7.70;5.35;;;12.00;66.80;;;;;;5038885;28;20383;-79
2022/12/20 10:42:29;;;;;;;11.30;6.03;;;12.20;65.00;;;;;;5037575;28;20382;-77
2022/12/20 10:44:55;;;;;;;11.32;6.07;;;12.30;65.20;;;;;;5040794;28;20443;-77
2022/12/20 10:47:32;;;;;;;10.10;5.90;;;12.20;64.90;;;;;;5048149;28;20419;-77
2022/12/20 10:50:20;;;;;;;16.60;8.75;;;12.30;65.90;;;;;;5048498;28;20383;-77
2022/12/20 10:53:02;;;;;;;8.43;5.40;;;12.30;66.00;;;;;;5045292;28;20376;-78
2022/12/20 10:55:36;;;;;;;11.98;5.75;;;12.50;62.70;;;;;;5042769;28;20375;-79
2022/12/20 10:58:05;;;;;;;12.15;6.20;;;12.60;62.20;;;;;;5039760;28;20391;-77
2022/12/20 11:00:32;;;;;;;9.80;5.70;;;12.60;62.50;;;;;;5042075;28;21018;-79
2022/12/20 11:03:14;;;;;;;11.50;5.88;;;12.70;61.60;;;;;;5042960;28;20391;-79
2022/12/20 11:05:51;;;;;;;7.57;4.97;;;12.70;61.50;;;;;;5045303;28;20410;-79
2022/12/20 11:08:17;;;;;;;9.63;4.70;;;12.70;61.20;;;;;;5046617;28;20391;-79
2022/12/20 11:10:43;;;;;;;7.70;5.60;;;12.80;60.10;;;;;;5039655;28;20395;-78
2022/12/20 11:13:20;;;;;;;12.38;5.40;;;12.90;59.30;;;;;;5047536;28;20434;-77
2022/12/20 11:15:53;;;;;;;6.75;5.40;;;12.90;58.70;;;;;;5054875;28;20386;-77
2022/12/20 11:18:39;;;;;;;9.65;5.28;;;12.90;58.40;;;;;;5050223;28;20391;-77
2022/12/20 11:21:21;;;;;;;9.77;5.60;;;12.80;58.70;;;;;;5049156;28;20455;-76
2022/12/20 11:23:54;;;;;;;11.10;5.90;;;12.80;59.20;;;;;;5048208;28;20419;-78
2022/12/20 11:26:30;;;;;;;8.13;5.15;;;12.80;60.00;;;;;;5046067;28;20394;-77
2022/12/20 11:29:07;;;;;;;7.93;4.50;;;12.70;60.40;;;;;;5038099;28;20491;-78
2022/12/20 11:31:51;;;;;;;9.65;4.80;;;12.70;60.00;;;;;;5037749;28;20478;-78
2022/12/20 11:34:42;;;;;;;10.23;6.15;;;12.70;59.90;;;;;;5036521;28;20422;-77
2022/12/20 11:37:24;;;;;;;8.07;4.80;;;12.60;60.60;;;;;;5045839;28;20418;-78
2022/12/20 11:40:10;;;;;;;9.25;5.35;;;12.60;60.20;;;;;;5041413;28;20425;-78
2022/12/20 11:42:51;;;;;;;9.53;4.80;;;12.60;60.70;;;;;;5044844;28;20399;-78
2022/12/20 11:45:19;;;;;;;8.38;4.90;;;12.70;60.30;;;;;;5044609;28;20844;-77
2022/12/20 11:47:48;;;;;;;9.93;5.40;;;12.70;60.70;;;;;;5048596;28;20390;-77
2022/12/20 11:50:29;;;;;;;10.85;5.80;;;12.70;60.00;;;;;;5049324;28;20419;-77
2022/12/20 11:53:08;;;;;;;12.30;5.00;;;12.70;60.40;;;;;;5050916;28;20386;-77
2022/12/20 11:55:38;;;;;;;9.70;4.97;;;12.80;59.80;;;;;;5055548;28;20390;-77
2022/12/20 11:58:22;;;;;;;11.30;4.90;;;12.80;59.50;;;;;;5053594;28;20497;-78
2022/12/20 12:01:05;;;;;;;9.60;5.68;;;12.80;58.80;;;;;;5053098;28;20391;-77
2022/12/20 12:03:38;;;;;;;9.80;5.53;;;12.80;59.20;;;;;;5046595;28;20391;-78
2022/12/20 12:06:31;;;;;;;9.30;4.88;;;12.80;59.00;;;;;;5043720;28;20422;-78
2022/12/20 12:09:11;;;;;;;8.68;4.40;;;12.80;59.10;;;;;;5041604;28;20449;-78
2022/12/20 12:11:44;;;;;;;10.57;4.30;;;12.80;59.00;;;;;;5039665;28;20391;-77
2022/12/20 12:14:50;;;;;;;8.65;5.03;;;12.80;59.50;;;;;;5042336;28;20432;-79
2022/12/20 12:17:45;;;;;;;9.57;4.95;;;12.70;59.60;;;;;;5045330;28;20407;-79
2022/12/20 12:20:39;;;;;;;7.82;5.00;;;12.70;60.00;;;;;;5045901;28;20391;-77
2022/12/20 12:23:43;;;;;;;10.82;5.10;;;12.70;60.20;;;;;;5039835;28;20391;-78
2022/12/20 12:26:31;;;;;;;9.18;5.05;;;12.70;60.20;;;;;;5039133;28;20415;-79
2022/12/20 12:29:00;;;;;;;9.95;5.40;;;12.70;60.10;;;;;;5033380;28;20414;-78
2022/12/20 12:31:44;;;;;;;7.50;4.88;;;12.70;60.30;;;;;;5047163;28;20391;-77
2022/12/20 12:34:42;;;;;;;8.50;4.88;;;12.70;61.20;;;;;;5051073;28;20470;-77
2022/12/20 12:37:32;;;;;;;10.27;4.70;;;12.80;59.80;;;;;;5033998;28;20459;-80
2022/12/20 12:40:10;;;;;;;5.95;3.95;;;12.80;59.30;;;;;;5038971;28;20386;-78
2022/12/20 12:43:04;;;;;;;10.60;4.40;;;12.70;60.80;;;;;;5038236;28;20387;-77
2022/12/20 12:45:47;;;;;;;7.20;4.80;;;12.80;60.50;;;;;;5043093;28;20375;-77
2022/12/20 12:48:34;;;;;;;6.75;4.75;;;12.80;60.90;;;;;;5044447;28;20406;-78
2022/12/20 12:51:01;;;;;;;7.85;4.82;;;12.80;62.10;;;;;;5042235;28;20395;-78
2022/12/20 12:54:00;;;;;;;11.00;4.50;;;12.70;64.50;;;;;;5043454;28;20477;-79
2022/12/20 12:56:29;;;;;;;8.57;4.70;;;12.80;65.30;;;;;;5041486;28;20422;-79
2022/12/20 12:59:08;;;;;;;9.35;4.93;;;12.60;68.10;;;;;;5049933;28;20387;-79
2022/12/20 13:02:13;;;;;;;9.70;4.78;;;12.50;71.20;;;;;;5047495;28;20383;-79
2022/12/20 13:05:20;;;;;;;11.43;6.00;;;12.50;72.80;;;;;;5048140;28;20394;-79
2022/12/20 13:07:45;;;;;;;9.15;5.80;;;12.40;75.30;;;;;;5004574;28;20422;-77